Waialua, Hawaii
Current Conditions -  °F | °C
As of 4:58 PM on Tuesday 21 Oct 2014 (Local Time) from PHHI Reporting Station
Clear Clear  
Wind Chill: 81°   Ceiling: Unl
Heat Index: 85°   Visibility: 10mi
Dew Point: 70°   Wind: 10mph
Humidity: 67%   Direction: 70°ENE
Pressure: 29.97"   Gusts: NA
Location:  21.57°N, 158.12°W
Report Text: PHHI 220258Z AUTO 07009KT 10SM CLR 27/21 A2997 RMK AO2 SLPNO T02740209 55002 $
Loading
Personal Weather Stations






























Interactive Weather Map New forecast layout! Learn more

10-Day Weather Forecast

Advertisements
Track Severe Weather on mobile